createdAt,value
2023-02-19T00:02:12.894Z,16.80
2023-02-19T00:07:14.344Z,18.85
2023-02-19T00:12:15.730Z,13.60
2023-02-19T00:17:17.142Z,17.48
2023-02-19T00:22:18.600Z,14.35
2023-02-19T00:27:20.073Z,19.88
2023-02-19T00:32:21.572Z,14.63
2023-02-19T00:37:22.978Z,13.95
2023-02-19T00:42:25.779Z,20.33
2023-02-19T00:47:27.225Z,17.30
2023-02-19T00:52:28.720Z,12.40
2023-02-19T00:57:30.116Z,16.42
2023-02-19T01:02:31.542Z,18.85
2023-02-19T01:07:35.075Z,13.90
2023-02-19T01:12:36.472Z,14.40
2023-02-19T01:17:37.856Z,13.90
2023-02-19T01:22:39.281Z,10.95
2023-02-19T01:27:40.716Z,13.55
2023-02-19T01:32:42.092Z,15.40
2023-02-19T01:37:43.532Z,16.40
2023-02-19T01:42:45.064Z,16.38
2023-02-19T01:47:47.711Z,16.25
2023-02-19T01:52:49.196Z,17.38
2023-02-19T01:57:53.369Z,16.35
2023-02-19T02:02:55.885Z,12.35
2023-02-19T02:08:16.009Z,14.48
2023-02-19T02:18:28.203Z,16.35
2023-02-19T02:23:29.589Z,14.13
2023-02-19T02:28:39.928Z,17.65
2023-02-19T02:33:44.745Z,17.42
2023-02-19T02:38:47.230Z,19.38
2023-02-19T02:43:48.754Z,18.77
2023-02-19T02:48:56.708Z,19.85
2023-02-19T02:54:16.744Z,21.65
2023-02-19T02:59:19.807Z,19.27
2023-02-19T03:04:24.325Z,25.33
2023-02-19T03:09:31.799Z,22.02
2023-02-19T03:14:55.655Z,20.23
2023-02-19T03:19:58.361Z,20.08
2023-02-19T03:25:19.840Z,20.67
2023-02-19T03:30:23.197Z,17.83
2023-02-19T03:35:26.764Z,16.85
2023-02-19T03:40:30.461Z,20.02
2023-02-19T03:45:48.000Z,20.15
2023-02-19T03:50:52.701Z,18.52
2023-02-19T03:55:56.902Z,16.20
2023-02-19T04:00:58.345Z,17.67
2023-02-19T04:06:02.013Z,21.17
2023-02-19T04:11:04.140Z,21.42
2023-02-19T04:16:10.371Z,19.73
2023-02-19T04:21:12.503Z,29.20
2023-02-19T04:26:14.585Z,20.25
2023-02-19T04:31:16.096Z,21.75
2023-02-19T04:36:17.630Z,19.40
2023-02-19T04:41:19.050Z,23.95
2023-02-19T04:46:20.497Z,22.45
2023-02-19T04:51:21.993Z,26.83
2023-02-19T04:56:24.127Z,23.83
2023-02-19T05:01:25.719Z,21.20
2023-02-19T05:06:27.529Z,25.40
2023-02-19T05:11:29.001Z,26.83
2023-02-19T05:16:30.458Z,27.67
2023-02-19T05:21:31.946Z,22.15
2023-02-19T05:26:33.422Z,25.55
2023-02-19T05:31:34.948Z,20.30
2023-02-19T05:36:37.263Z,23.55
2023-02-19T05:41:39.470Z,24.52
2023-02-19T05:46:41.055Z,20.40
2023-02-19T05:51:42.552Z,23.52
2023-02-19T05:56:44.042Z,29.83
2023-02-19T06:01:45.926Z,36.03
2023-02-19T06:06:47.739Z,32.30
2023-02-19T06:11:49.224Z,35.38
2023-02-19T06:16:50.659Z,31.77
2023-02-19T06:21:52.014Z,27.63
2023-02-19T06:26:53.488Z,22.67
2023-02-19T06:31:55.085Z,21.30
2023-02-19T06:36:57.927Z,16.83
2023-02-19T06:41:59.427Z,15.23
2023-02-19T06:47:00.832Z,13.82
2023-02-19T06:52:03.769Z,17.70
2023-02-19T06:57:05.221Z,14.80
2023-02-19T07:02:07.186Z,14.07
2023-02-19T07:07:10.677Z,12.65
2023-02-19T07:12:12.225Z,12.48
2023-02-19T07:17:13.668Z,14.70
2023-02-19T07:22:15.183Z,14.05
2023-02-19T07:27:17.069Z,14.95
2023-02-19T07:32:18.476Z,16.58
2023-02-19T07:37:20.026Z,14.05
2023-02-19T07:42:21.443Z,11.82
2023-02-19T07:47:23.242Z,12.68
2023-02-19T07:52:24.734Z,19.90
2023-02-19T07:57:28.123Z,16.73
2023-02-19T08:02:48.282Z,15.63
2023-02-19T08:13:19.568Z,19.20
2023-02-19T08:18:22.419Z,20.58
2023-02-19T08:23:24.239Z,16.90
2023-02-19T08:28:25.868Z,15.07
2023-02-19T08:33:27.296Z,15.00
2023-02-19T08:38:28.708Z,13.27
2023-02-19T08:43:30.138Z,10.57
2023-02-19T08:48:31.563Z,12.43
2023-02-19T08:53:33.255Z,8.57
2023-02-19T08:58:35.340Z,11.00
2023-02-19T09:03:36.836Z,7.53
2023-02-19T09:08:38.257Z,9.45
2023-02-19T09:13:39.771Z,10.25
2023-02-19T09:18:41.235Z,8.18
2023-02-19T09:23:43.182Z,8.00
2023-02-19T09:28:44.626Z,9.00
2023-02-19T09:33:47.514Z,8.88
2023-02-19T09:38:49.016Z,6.07
2023-02-19T09:43:50.578Z,7.93
2023-02-19T09:48:53.333Z,4.78
2023-02-19T09:53:55.619Z,5.97
2023-02-19T09:58:58.248Z,5.85
2023-02-19T10:03:59.662Z,4.30
2023-02-19T10:09:20.163Z,5.75
2023-02-19T10:14:36.405Z,4.70
2023-02-19T10:19:37.890Z,8.82
2023-02-19T10:24:41.248Z,5.47
2023-02-19T10:29:43.780Z,3.67
2023-02-19T10:34:45.191Z,6.35
2023-02-19T10:39:47.802Z,2.67
2023-02-19T10:44:51.512Z,3.03
2023-02-19T10:49:55.582Z,3.15
2023-02-19T10:55:21.410Z,4.05
2023-02-19T11:00:27.038Z,8.88
2023-02-19T11:05:28.552Z,12.77
2023-02-19T11:10:40.008Z,7.78
2023-02-19T11:15:42.423Z,7.10
2023-02-19T11:20:49.491Z,3.38
2023-02-19T11:25:53.020Z,5.50
2023-02-19T11:30:54.549Z,13.70
2023-02-19T11:36:16.017Z,9.32
2023-02-19T11:41:17.436Z,5.28
2023-02-19T11:46:38.851Z,7.50
2023-02-19T11:51:52.971Z,5.35
2023-02-19T11:57:14.653Z,4.63
2023-02-19T12:02:36.354Z,8.88
2023-02-19T12:07:37.774Z,4.22
2023-02-19T12:12:39.283Z,5.53
2023-02-19T12:17:52.773Z,7.25
2023-02-19T12:23:13.075Z,10.77
2023-02-19T12:28:20.373Z,6.75
2023-02-19T12:33:30.850Z,10.88
2023-02-19T12:38:47.765Z,10.68
2023-02-19T12:44:00.284Z,9.55
2023-02-19T12:49:04.467Z,3.53
2023-02-19T12:54:06.270Z,3.13
2023-02-19T12:59:13.850Z,4.13
2023-02-19T13:04:20.688Z,2.78
2023-02-19T13:09:29.639Z,3.17
2023-02-19T13:14:34.310Z,3.47
2023-02-19T13:19:36.977Z,4.45
2023-02-19T13:24:40.440Z,5.68
2023-02-19T13:30:02.283Z,6.18
2023-02-19T13:35:15.791Z,3.47
2023-02-19T13:40:32.662Z,8.25
2023-02-19T13:45:39.690Z,3.90
2023-02-19T13:50:41.179Z,8.60
2023-02-19T13:55:42.800Z,5.38
2023-02-19T14:00:51.348Z,5.63
2023-02-19T14:06:00.579Z,5.82
2023-02-19T14:11:05.209Z,4.95
2023-02-19T14:16:26.621Z,3.72
2023-02-19T14:21:41.241Z,5.32
2023-02-19T14:26:42.735Z,3.67
2023-02-19T14:31:45.052Z,7.60
2023-02-19T14:36:50.154Z,4.80
2023-02-19T14:41:53.254Z,4.38
2023-02-19T14:47:03.990Z,6.22
2023-02-19T14:52:07.467Z,7.57
2023-02-19T14:57:17.176Z,5.95
2023-02-19T15:02:21.060Z,4.05
2023-02-19T15:07:26.302Z,3.58
2023-02-19T15:12:31.886Z,6.63
2023-02-19T15:17:34.270Z,4.45
2023-02-19T15:22:35.755Z,3.92
2023-02-19T15:27:37.520Z,3.80
2023-02-19T15:32:39.420Z,5.35
2023-02-19T15:37:40.885Z,10.88
2023-02-19T15:42:44.625Z,9.20
2023-02-19T15:47:56.869Z,9.30
2023-02-19T15:53:09.436Z,7.88
2023-02-19T15:58:14.044Z,7.60
2023-02-19T16:03:18.017Z,9.55
2023-02-19T16:08:20.371Z,8.73
2023-02-19T16:13:28.350Z,8.90
2023-02-19T16:18:30.045Z,6.88
2023-02-19T16:23:31.478Z,8.20
2023-02-19T16:28:38.188Z,7.15
2023-02-19T16:33:41.034Z,8.20
2023-02-19T16:38:58.381Z,8.60
2023-02-19T16:44:06.402Z,8.52
2023-02-19T16:49:08.776Z,7.38
2023-02-19T16:54:10.889Z,7.10
2023-02-19T16:59:12.351Z,6.45
2023-02-19T17:04:15.732Z,8.57
2023-02-19T17:09:17.323Z,6.13
2023-02-19T17:14:18.943Z,5.82
2023-02-19T17:19:20.695Z,6.25
2023-02-19T17:24:22.245Z,6.90
2023-02-19T17:29:24.640Z,7.35
2023-02-19T17:34:26.060Z,8.30
2023-02-19T17:39:28.311Z,8.60
2023-02-19T17:44:29.690Z,7.50
2023-02-19T17:49:31.161Z,8.40
2023-02-19T17:54:32.641Z,7.88
2023-02-19T17:59:34.053Z,6.07
2023-02-19T18:04:36.796Z,11.13
2023-02-19T18:09:41.057Z,7.95
2023-02-19T18:14:44.928Z,7.32
2023-02-19T18:19:46.341Z,7.18
2023-02-19T18:24:49.224Z,9.30
2023-02-19T18:29:52.044Z,10.15
2023-02-19T18:34:54.469Z,7.85
2023-02-19T18:39:55.889Z,10.93
2023-02-19T18:44:57.421Z,8.23
2023-02-19T18:49:59.501Z,9.48
2023-02-19T18:55:00.988Z,7.97
2023-02-19T19:00:02.431Z,11.23
2023-02-19T19:05:04.200Z,15.27
2023-02-19T19:10:06.110Z,11.57
2023-02-19T19:15:07.857Z,10.00
2023-02-19T19:20:09.614Z,9.65
2023-02-19T19:25:11.256Z,9.10
2023-02-19T19:30:13.264Z,11.48
2023-02-19T19:35:15.692Z,8.98
2023-02-19T19:40:17.678Z,10.38
2023-02-19T19:45:19.197Z,7.53
2023-02-19T19:50:20.681Z,9.60
2023-02-19T19:55:22.330Z,7.93
2023-02-19T20:00:24.543Z,9.90
2023-02-19T20:05:26.019Z,11.23
2023-02-19T20:10:27.435Z,7.68
2023-02-19T20:15:28.827Z,9.98
2023-02-19T20:20:30.590Z,9.35
2023-02-19T20:25:33.245Z,7.43
2023-02-19T20:30:35.457Z,8.25
2023-02-19T20:35:36.957Z,9.00
2023-02-19T20:40:38.405Z,7.03
2023-02-19T20:45:41.089Z,6.85
2023-02-19T20:50:42.519Z,8.23
2023-02-19T20:55:43.957Z,7.22
2023-02-19T21:00:46.441Z,10.15
2023-02-19T21:05:47.942Z,14.52
2023-02-19T21:10:49.431Z,10.27
2023-02-19T21:15:50.854Z,9.65
2023-02-19T21:20:52.262Z,11.23
2023-02-19T21:25:54.665Z,9.55
2023-02-19T21:30:56.313Z,8.63
2023-02-19T21:35:57.769Z,8.50
2023-02-19T21:40:59.250Z,11.95
2023-02-19T21:46:00.618Z,14.20
2023-02-19T21:51:03.533Z,11.57
2023-02-19T21:56:05.286Z,11.63
2023-02-19T22:01:06.744Z,15.88
2023-02-19T22:06:08.151Z,12.70
2023-02-19T22:11:09.584Z,13.43
2023-02-19T22:16:11.598Z,14.25
2023-02-19T22:21:13.241Z,17.60
2023-02-19T22:26:22.132Z,13.32
2023-02-19T22:31:24.476Z,18.33
2023-02-19T22:36:27.820Z,19.27
2023-02-19T22:41:29.567Z,18.83
2023-02-19T22:46:31.197Z,22.98
2023-02-19T22:51:33.817Z,17.92
2023-02-19T22:56:35.400Z,20.08
2023-02-19T23:01:36.858Z,20.90
2023-02-19T23:06:38.628Z,26.45
2023-02-19T23:11:40.079Z,22.33
2023-02-19T23:16:41.801Z,20.73
2023-02-19T23:21:43.971Z,25.98
2023-02-19T23:26:46.307Z,21.20
2023-02-19T23:31:47.902Z,22.25
2023-02-19T23:36:50.350Z,22.08
2023-02-19T23:41:53.440Z,20.70
2023-02-19T23:46:55.038Z,19.52
2023-02-19T23:51:56.506Z,19.65
2023-02-19T23:56:58.161Z,20.75
